createdAt,value
2022-12-31T00:01:31.108Z,3.05
2022-12-31T00:04:00.698Z,4.97
2022-12-31T00:06:33.047Z,3.13
2022-12-31T00:09:03.696Z,4.03
2022-12-31T00:11:34.304Z,5.68
2022-12-31T00:14:03.715Z,4.63
2022-12-31T00:16:36.709Z,5.65
2022-12-31T00:19:07.127Z,4.30
2022-12-31T00:21:38.564Z,3.08
2022-12-31T00:24:09.023Z,3.90
2022-12-31T00:26:38.398Z,3.10
2022-12-31T00:29:07.871Z,4.07
2022-12-31T00:31:39.362Z,3.72
2022-12-31T00:34:08.955Z,3.30
2022-12-31T00:36:41.672Z,4.07
2022-12-31T00:39:12.822Z,3.20
2022-12-31T00:41:43.460Z,3.50
2022-12-31T00:44:14.652Z,5.15
2022-12-31T00:49:12.948Z,3.88
2022-12-31T00:51:43.674Z,3.15
2022-12-31T00:54:12.915Z,3.17
2022-12-31T00:56:42.473Z,3.53
2022-12-31T00:59:11.698Z,3.15
2022-12-31T01:01:41.892Z,3.33
2022-12-31T01:04:13.669Z,4.38
2022-12-31T01:06:45.558Z,6.22
2022-12-31T01:09:16.613Z,4.60
2022-12-31T01:11:46.063Z,3.45
2022-12-31T01:14:18.393Z,2.80
2022-12-31T01:16:49.799Z,3.20
2022-12-31T01:19:22.678Z,3.80
2022-12-31T01:21:54.043Z,5.40
2022-12-31T01:24:23.483Z,6.40
2022-12-31T01:26:52.941Z,4.00
2022-12-31T01:29:22.263Z,3.20
2022-12-31T01:31:51.589Z,3.45
2022-12-31T01:34:20.933Z,3.03
2022-12-31T01:36:50.174Z,3.15
2022-12-31T01:39:20.903Z,3.00
2022-12-31T01:41:50.230Z,3.92
2022-12-31T01:44:54.234Z,4.07
2022-12-31T01:47:35.639Z,3.47
2022-12-31T01:50:10.051Z,3.45
2022-12-31T01:52:42.657Z,4.07
2022-12-31T01:55:19.040Z,3.83
2022-12-31T01:57:51.980Z,3.15
2022-12-31T02:00:22.759Z,3.75
2022-12-31T02:02:52.475Z,4.95
2022-12-31T02:05:27.608Z,3.42
2022-12-31T02:07:57.678Z,3.72
2022-12-31T02:10:28.458Z,3.40
2022-12-31T02:12:57.860Z,4.53
2022-12-31T02:15:35.897Z,4.35
2022-12-31T02:18:12.300Z,4.80
2022-12-31T02:21:09.538Z,4.40
2022-12-31T02:24:11.566Z,5.00
2022-12-31T02:27:03.283Z,4.65
2022-12-31T02:30:06.499Z,5.35
2022-12-31T02:32:48.621Z,3.03
2022-12-31T02:35:24.693Z,4.75
2022-12-31T02:37:59.975Z,3.45
2022-12-31T02:40:29.541Z,3.78
2022-12-31T02:42:58.747Z,3.25
2022-12-31T02:45:33.933Z,4.47
2022-12-31T02:48:28.826Z,3.72
2022-12-31T02:51:07.328Z,3.90
2022-12-31T02:53:57.953Z,3.53
2022-12-31T02:56:33.822Z,4.03
2022-12-31T02:59:25.274Z,3.60
2022-12-31T03:02:17.144Z,3.40
2022-12-31T03:04:51.037Z,3.40
2022-12-31T03:07:22.693Z,3.05
2022-12-31T03:09:52.055Z,3.28
2022-12-31T03:12:40.385Z,4.32
2022-12-31T03:15:20.433Z,3.78
2022-12-31T03:17:57.700Z,3.38
2022-12-31T03:20:48.288Z,3.20
2022-12-31T03:23:20.781Z,4.65
2022-12-31T03:25:49.237Z,3.13
2022-12-31T03:28:20.413Z,4.50
2022-12-31T03:30:52.452Z,3.40
2022-12-31T03:33:24.008Z,3.63
2022-12-31T03:35:54.289Z,3.75
2022-12-31T03:38:23.623Z,3.03
2022-12-31T03:40:54.442Z,3.20
2022-12-31T03:43:23.961Z,3.00
2022-12-31T03:45:55.030Z,3.88
2022-12-31T03:48:25.871Z,3.28
2022-12-31T03:50:55.185Z,3.45
2022-12-31T03:53:24.762Z,4.13
2022-12-31T03:55:54.822Z,3.78
2022-12-31T03:58:24.338Z,3.53
2022-12-31T04:00:53.637Z,3.15
2022-12-31T04:03:24.645Z,3.50
2022-12-31T04:05:54.966Z,2.72
2022-12-31T04:08:24.493Z,3.65
2022-12-31T04:10:53.884Z,2.72
2022-12-31T04:13:23.183Z,3.47
2022-12-31T04:15:53.115Z,3.20
2022-12-31T04:18:22.370Z,3.47
2022-12-31T04:20:53.101Z,4.10
2022-12-31T04:23:22.475Z,4.50
2022-12-31T04:25:51.739Z,2.95
2022-12-31T04:28:20.997Z,2.70
2022-12-31T04:30:50.266Z,3.88
2022-12-31T04:33:19.558Z,2.85
2022-12-31T04:35:48.799Z,2.80
2022-12-31T04:38:19.789Z,4.13
2022-12-31T04:41:02.973Z,2.75
2022-12-31T04:43:32.467Z,3.17
2022-12-31T04:46:03.355Z,2.65
2022-12-31T04:48:32.744Z,3.15
2022-12-31T04:51:02.180Z,2.70
2022-12-31T04:53:33.272Z,3.33
2022-12-31T04:56:03.062Z,2.65
2022-12-31T04:58:32.740Z,2.65
2022-12-31T05:01:02.494Z,2.60
2022-12-31T05:03:32.132Z,2.95
2022-12-31T05:06:05.378Z,2.80
2022-12-31T05:08:36.525Z,4.03
2022-12-31T05:11:06.043Z,3.10
2022-12-31T05:13:35.859Z,2.55
2022-12-31T05:16:06.419Z,2.78
2022-12-31T05:18:36.427Z,2.60
2022-12-31T05:21:06.001Z,2.75
2022-12-31T05:23:37.011Z,3.08
2022-12-31T05:26:06.471Z,2.55
2022-12-31T05:28:35.733Z,3.33
2022-12-31T05:31:05.144Z,2.50
2022-12-31T05:33:34.393Z,2.70
2022-12-31T05:36:03.739Z,2.95
2022-12-31T05:38:33.118Z,3.67
2022-12-31T05:41:05.762Z,3.13
2022-12-31T05:43:35.566Z,2.60
2022-12-31T05:46:06.166Z,2.65
2022-12-31T05:48:35.526Z,2.28
2022-12-31T05:51:05.256Z,2.92
2022-12-31T05:53:34.582Z,2.60
2022-12-31T05:56:05.682Z,2.40
2022-12-31T05:58:35.031Z,2.47
2022-12-31T06:01:04.327Z,2.40
2022-12-31T06:03:33.693Z,2.58
2022-12-31T06:06:03.389Z,2.55
2022-12-31T06:08:32.618Z,2.67
2022-12-31T06:11:01.934Z,3.15
2022-12-31T06:13:33.396Z,2.50
2022-12-31T06:16:08.119Z,2.33
2022-12-31T06:18:37.667Z,2.25
2022-12-31T06:21:07.488Z,3.60
2022-12-31T06:23:36.735Z,2.72
2022-12-31T06:26:06.724Z,2.22
2022-12-31T06:28:37.721Z,2.65
2022-12-31T06:31:09.038Z,2.20
2022-12-31T06:33:38.502Z,3.08
2022-12-31T06:36:10.049Z,2.30
2022-12-31T06:38:41.787Z,3.42
2022-12-31T06:41:13.042Z,3.53
2022-12-31T06:43:44.671Z,2.25
2022-12-31T06:46:17.266Z,2.53
2022-12-31T06:48:47.104Z,2.03
2022-12-31T06:51:18.607Z,2.30
2022-12-31T06:53:48.718Z,2.20
2022-12-31T06:56:21.137Z,2.97
2022-12-31T06:58:52.743Z,4.40
2022-12-31T07:01:43.937Z,3.53
2022-12-31T07:04:46.595Z,3.55
2022-12-31T07:07:22.457Z,2.83
2022-12-31T07:10:01.998Z,2.55
2022-12-31T07:12:42.230Z,2.53
2022-12-31T07:15:20.828Z,2.97
2022-12-31T07:17:56.217Z,3.20
2022-12-31T07:20:26.182Z,5.53
2022-12-31T07:22:57.083Z,5.53
2022-12-31T07:25:27.629Z,2.78
2022-12-31T07:28:11.795Z,3.92
2022-12-31T07:30:49.787Z,2.40
2022-12-31T07:33:44.518Z,3.13
2022-12-31T07:36:25.536Z,2.63
2022-12-31T07:39:00.638Z,2.30
2022-12-31T07:41:47.943Z,2.58
2022-12-31T07:44:33.829Z,3.13
2022-12-31T07:47:06.862Z,3.22
2022-12-31T07:49:39.597Z,3.55
2022-12-31T07:52:09.649Z,4.63
2022-12-31T07:54:38.854Z,4.20
2022-12-31T07:57:08.138Z,5.93
2022-12-31T07:59:48.935Z,7.53
2022-12-31T08:02:32.442Z,9.32
2022-12-31T08:05:10.543Z,5.45
2022-12-31T08:07:49.646Z,6.43
2022-12-31T08:10:27.540Z,5.32
2022-12-31T08:13:03.439Z,4.53
2022-12-31T08:15:33.440Z,7.78
2022-12-31T08:18:04.717Z,5.60
2022-12-31T08:20:35.581Z,4.70
2022-12-31T08:23:17.671Z,2.60
2022-12-31T08:26:04.936Z,5.32
2022-12-31T08:28:53.886Z,4.28
2022-12-31T08:31:27.138Z,4.95
2022-12-31T08:34:08.774Z,3.05
2022-12-31T08:36:47.859Z,2.40
2022-12-31T08:39:26.272Z,2.33
2022-12-31T08:41:58.010Z,3.88
2022-12-31T08:44:37.262Z,4.18
2022-12-31T08:47:19.408Z,4.10
2022-12-31T08:49:50.833Z,8.30
2022-12-31T08:52:25.345Z,7.25
2022-12-31T08:54:55.488Z,5.38
2022-12-31T08:57:31.192Z,4.32
2022-12-31T09:00:10.598Z,10.35
2022-12-31T09:03:04.348Z,7.97
2022-12-31T09:05:41.544Z,6.38
2022-12-31T09:08:21.213Z,7.00
2022-12-31T09:10:57.400Z,10.15
2022-12-31T09:13:33.725Z,9.52
2022-12-31T09:16:09.396Z,6.22
2022-12-31T09:18:42.220Z,8.65
2022-12-31T09:21:16.162Z,7.50
2022-12-31T09:23:46.136Z,8.48
2022-12-31T09:26:37.102Z,5.85
2022-12-31T09:29:16.524Z,8.02
2022-12-31T09:31:53.179Z,7.00
2022-12-31T09:34:28.204Z,10.32
2022-12-31T09:37:04.671Z,5.88
2022-12-31T09:39:42.018Z,10.73
2022-12-31T09:42:52.204Z,25.17
2022-12-31T09:45:56.313Z,17.85
2022-12-31T09:48:55.273Z,17.23
2022-12-31T09:51:31.729Z,16.98
2022-12-31T09:54:29.129Z,20.13
2022-12-31T09:57:22.869Z,18.88
2022-12-31T09:59:59.357Z,14.40
2022-12-31T10:02:54.008Z,16.27
2022-12-31T10:05:43.811Z,17.80
2022-12-31T10:08:25.702Z,13.35
2022-12-31T10:11:00.161Z,11.40
2022-12-31T10:13:43.352Z,12.77
2022-12-31T10:16:34.946Z,11.57
2022-12-31T10:19:58.487Z,30.38
2022-12-31T10:22:56.913Z,19.70
2022-12-31T10:25:39.855Z,15.10
2022-12-31T10:28:23.085Z,23.02
2022-12-31T10:31:03.626Z,14.43
2022-12-31T10:33:44.276Z,17.83
2022-12-31T10:36:22.888Z,12.43
2022-12-31T10:39:12.893Z,14.75
2022-12-31T10:42:13.366Z,9.82
2022-12-31T10:45:14.320Z,13.52
2022-12-31T10:48:11.004Z,24.13
2022-12-31T10:51:28.107Z,19.67
2022-12-31T10:54:30.359Z,12.20
2022-12-31T10:57:20.642Z,15.75
2022-12-31T11:00:12.547Z,11.27
2022-12-31T11:03:27.011Z,13.05
2022-12-31T11:06:36.572Z,14.68
2022-12-31T11:09:42.518Z,10.68
2022-12-31T11:12:30.980Z,7.30
2022-12-31T11:15:28.751Z,13.20
2022-12-31T11:18:08.257Z,17.40
2022-12-31T11:20:57.135Z,13.25
2022-12-31T11:23:39.300Z,13.85
2022-12-31T11:26:19.102Z,22.75
2022-12-31T11:29:16.788Z,16.73
2022-12-31T11:32:16.671Z,21.20
2022-12-31T11:35:24.573Z,14.77
2022-12-31T11:37:59.914Z,13.98
2022-12-31T11:40:54.354Z,14.00
2022-12-31T11:43:29.204Z,12.70
2022-12-31T11:46:14.941Z,24.73
2022-12-31T11:48:58.139Z,20.02
2022-12-31T11:51:50.783Z,24.92
2022-12-31T11:54:43.624Z,23.45
2022-12-31T11:57:20.443Z,22.50
2022-12-31T11:59:50.312Z,19.23
2022-12-31T12:02:27.349Z,21.73
2022-12-31T12:05:10.376Z,16.38
2022-12-31T12:07:40.540Z,18.13
2022-12-31T12:10:22.756Z,17.65
2022-12-31T12:12:53.034Z,13.90
2022-12-31T12:15:29.869Z,19.27
2022-12-31T12:18:01.695Z,13.52
2022-12-31T12:20:35.063Z,15.55
2022-12-31T12:23:16.000Z,11.45
2022-12-31T12:25:46.511Z,11.63
2022-12-31T12:28:22.875Z,12.30
2022-12-31T12:31:34.277Z,8.90
2022-12-31T12:34:04.535Z,8.80
2022-12-31T12:36:35.248Z,6.18
2022-12-31T12:39:06.621Z,10.35
2022-12-31T12:41:42.348Z,14.57
2022-12-31T12:44:17.352Z,8.68
2022-12-31T12:46:49.788Z,12.40
2022-12-31T12:49:25.551Z,12.07
2022-12-31T12:52:18.423Z,9.40
2022-12-31T12:55:04.269Z,10.55
2022-12-31T12:57:44.017Z,11.52
2022-12-31T13:00:21.857Z,12.73
2022-12-31T13:03:29.710Z,10.63
2022-12-31T13:06:27.032Z,9.68
2022-12-31T13:09:23.557Z,13.90
2022-12-31T13:12:07.968Z,10.65
2022-12-31T13:14:46.118Z,10.73
2022-12-31T13:17:34.245Z,9.30
2022-12-31T13:20:10.646Z,13.52
2022-12-31T13:22:43.635Z,17.05
2022-12-31T13:25:27.834Z,21.52
2022-12-31T13:28:01.758Z,33.67
2022-12-31T13:30:36.540Z,38.45
2022-12-31T13:33:11.104Z,21.50
2022-12-31T13:35:46.110Z,26.85
2022-12-31T13:38:21.681Z,23.80
2022-12-31T13:40:59.575Z,28.38
2022-12-31T13:43:38.107Z,15.45
2022-12-31T13:46:15.561Z,18.27
2022-12-31T13:48:50.983Z,16.08
2022-12-31T13:51:29.179Z,22.38
2022-12-31T13:54:04.453Z,25.25
2022-12-31T13:56:38.613Z,27.90
2022-12-31T13:59:16.879Z,19.65
2022-12-31T14:01:51.391Z,16.20
2022-12-31T14:04:26.224Z,15.77
2022-12-31T14:06:57.948Z,12.38
2022-12-31T14:09:30.179Z,19.15
2022-12-31T14:12:26.435Z,18.05
2022-12-31T14:15:04.377Z,14.57
2022-12-31T14:17:43.045Z,10.45
2022-12-31T14:20:23.118Z,8.80
2022-12-31T14:22:57.554Z,11.07
2022-12-31T14:25:32.936Z,14.15
2022-12-31T14:28:05.707Z,8.40
2022-12-31T14:30:40.273Z,10.18
2022-12-31T14:33:40.201Z,12.32
2022-12-31T14:36:24.370Z,8.18
2022-12-31T14:39:06.925Z,9.05
2022-12-31T14:41:46.486Z,7.80
2022-12-31T14:44:33.043Z,11.55
2022-12-31T14:47:15.016Z,12.57
2022-12-31T14:49:52.450Z,11.55
2022-12-31T14:52:25.277Z,9.80
2022-12-31T14:55:04.209Z,10.73
2022-12-31T15:00:54.362Z,7.65
2022-12-31T15:03:28.446Z,9.45
2022-12-31T15:06:06.165Z,7.47
2022-12-31T15:08:50.732Z,10.13
2022-12-31T15:11:39.214Z,8.50
2022-12-31T15:14:41.976Z,12.23
2022-12-31T15:17:23.088Z,12.13
2022-12-31T15:20:28.032Z,6.28
2022-12-31T15:22:57.816Z,9.85
2022-12-31T15:25:35.269Z,11.25
2022-12-31T15:28:10.144Z,12.82
2022-12-31T15:30:43.435Z,12.40
2022-12-31T15:33:25.904Z,7.95
2022-12-31T15:35:57.844Z,12.32
2022-12-31T15:38:36.687Z,13.98
2022-12-31T15:41:25.605Z,10.48
2022-12-31T15:43:59.238Z,16.90
2022-12-31T15:46:32.000Z,21.00
2022-12-31T15:49:10.249Z,30.02
2022-12-31T15:51:48.771Z,18.27
2022-12-31T15:54:30.644Z,15.93
2022-12-31T15:57:05.657Z,18.33
2022-12-31T15:59:39.603Z,14.82
2022-12-31T16:02:22.593Z,14.43
2022-12-31T16:04:54.836Z,11.77
2022-12-31T16:07:25.427Z,11.82
2022-12-31T16:09:56.742Z,17.17
2022-12-31T16:12:33.234Z,6.90
2022-12-31T16:15:32.975Z,16.00
2022-12-31T16:18:05.170Z,9.57
2022-12-31T16:20:35.933Z,9.80
2022-12-31T16:23:21.191Z,12.52
2022-12-31T16:25:51.644Z,13.27
2022-12-31T16:28:23.276Z,10.32
2022-12-31T16:31:01.796Z,9.85
2022-12-31T16:33:32.762Z,10.18
2022-12-31T16:36:03.387Z,12.45
2022-12-31T16:38:34.544Z,10.48
2022-12-31T16:41:18.174Z,9.98
2022-12-31T16:43:49.215Z,8.77
2022-12-31T16:46:26.551Z,7.97
2022-12-31T16:48:58.334Z,11.52
2022-12-31T16:51:31.660Z,8.02
2022-12-31T16:54:03.350Z,14.15
2022-12-31T16:56:36.245Z,25.60
2022-12-31T16:59:09.530Z,10.43
2022-12-31T17:01:41.663Z,9.48
2022-12-31T17:04:14.217Z,8.88
2022-12-31T17:06:46.216Z,9.02
2022-12-31T17:09:21.045Z,15.38
2022-12-31T17:11:54.677Z,7.47
2022-12-31T17:14:25.971Z,9.70
2022-12-31T17:17:03.108Z,8.57
2022-12-31T17:19:40.914Z,14.85
2022-12-31T17:22:17.330Z,12.80
2022-12-31T17:24:50.707Z,9.57
2022-12-31T17:27:21.083Z,8.70
2022-12-31T17:29:50.774Z,9.57
2022-12-31T17:32:36.939Z,5.90
2022-12-31T17:35:29.779Z,10.55
2022-12-31T17:38:29.376Z,7.75
2022-12-31T17:41:19.459Z,12.80
2022-12-31T17:43:54.949Z,8.38
2022-12-31T17:46:26.534Z,29.55
2022-12-31T17:49:02.463Z,25.23
2022-12-31T17:51:32.187Z,31.83
2022-12-31T17:54:02.412Z,31.75
2022-12-31T17:56:33.619Z,24.98
2022-12-31T17:59:06.490Z,27.25
2022-12-31T18:01:36.236Z,24.75
2022-12-31T18:04:11.464Z,19.73
2022-12-31T18:06:41.095Z,18.13
2022-12-31T18:09:11.727Z,18.95
2022-12-31T18:11:42.769Z,20.80
2022-12-31T18:14:12.910Z,12.43
2022-12-31T18:16:42.342Z,16.98
2022-12-31T18:19:45.718Z,12.88
2022-12-31T18:22:05.402Z,19.40
2022-12-31T18:24:35.015Z,21.10
2022-12-31T18:27:04.294Z,18.02
2022-12-31T18:29:33.690Z,14.80
2022-12-31T18:32:03.190Z,14.90
2022-12-31T18:34:34.624Z,21.98
2022-12-31T18:37:04.379Z,14.23
2022-12-31T18:39:33.891Z,17.60
2022-12-31T18:42:03.596Z,13.40
2022-12-31T18:44:33.357Z,11.73
2022-12-31T18:47:02.616Z,23.65
2022-12-31T18:49:31.845Z,23.70
2022-12-31T18:52:02.629Z,22.42
2022-12-31T18:54:31.989Z,18.02
2022-12-31T18:57:01.200Z,22.75
2022-12-31T18:59:30.604Z,20.20
2022-12-31T19:02:00.004Z,26.23
2022-12-31T19:04:29.695Z,19.02
2022-12-31T19:06:58.988Z,20.00
2022-12-31T19:09:46.359Z,17.98
2022-12-31T19:12:16.870Z,13.80
2022-12-31T19:14:46.065Z,15.10
2022-12-31T19:17:15.342Z,14.77
2022-12-31T19:19:44.627Z,12.38
2022-12-31T19:22:16.946Z,14.50
2022-12-31T19:24:47.619Z,10.45
2022-12-31T19:27:17.195Z,11.02
2022-12-31T19:29:46.405Z,11.63
2022-12-31T19:32:15.673Z,14.38
2022-12-31T19:34:44.941Z,10.50
2022-12-31T19:37:16.731Z,11.57
2022-12-31T19:39:47.424Z,7.30
2022-12-31T19:42:17.469Z,14.43
2022-12-31T19:44:46.597Z,9.23
2022-12-31T19:47:15.758Z,12.93
2022-12-31T19:49:45.062Z,11.55
2022-12-31T19:52:14.413Z,13.55
2022-12-31T19:54:43.734Z,10.57
2022-12-31T19:57:14.393Z,13.52
2022-12-31T19:59:43.623Z,11.05
2022-12-31T20:02:13.166Z,11.90
2022-12-31T20:04:43.593Z,10.27
2022-12-31T20:07:12.889Z,12.18
2022-12-31T20:09:42.292Z,10.40
2022-12-31T20:12:11.679Z,9.68
2022-12-31T20:14:42.409Z,15.07
2022-12-31T20:17:11.691Z,14.20
2022-12-31T20:19:40.922Z,16.73
2022-12-31T20:22:10.247Z,16.15
2022-12-31T20:24:39.402Z,15.10
2022-12-31T20:27:13.499Z,12.77
2022-12-31T20:29:47.317Z,19.50
2022-12-31T20:32:16.813Z,19.30
2022-12-31T20:34:46.048Z,13.68
2022-12-31T20:37:15.330Z,13.43
2022-12-31T20:39:45.031Z,14.43
2022-12-31T20:42:14.432Z,16.15
2022-12-31T20:44:43.761Z,12.93
2022-12-31T20:47:14.629Z,14.45
2022-12-31T20:50:09.768Z,10.20
2022-12-31T20:52:33.820Z,10.82
2022-12-31T20:55:03.048Z,10.70
2022-12-31T20:57:34.013Z,11.10
2022-12-31T21:00:04.005Z,13.57
2022-12-31T21:02:42.050Z,7.47
2022-12-31T21:05:12.776Z,12.23
2022-12-31T21:07:42.213Z,8.25
2022-12-31T21:10:11.725Z,8.55
2022-12-31T21:12:53.180Z,11.15
2022-12-31T21:15:22.713Z,8.07
2022-12-31T21:17:53.493Z,10.75
2022-12-31T21:20:22.938Z,11.40
2022-12-31T21:22:52.048Z,15.85
2022-12-31T21:25:21.230Z,15.80
2022-12-31T21:27:50.414Z,30.88
2022-12-31T21:30:20.176Z,14.90
2022-12-31T21:32:49.714Z,11.73
2022-12-31T21:38:10.118Z,15.20
2022-12-31T21:40:39.641Z,14.13
2022-12-31T21:43:08.953Z,10.15
2022-12-31T21:45:38.177Z,13.57
2022-12-31T21:48:25.137Z,12.73
2022-12-31T21:50:57.439Z,11.02
2022-12-31T21:53:34.202Z,11.63
2022-12-31T21:56:11.929Z,10.45
2022-12-31T21:58:43.382Z,13.88
2022-12-31T22:01:36.617Z,7.55
2022-12-31T22:04:07.910Z,13.93
2022-12-31T22:06:43.793Z,18.52
2022-12-31T22:09:13.013Z,21.15
2022-12-31T22:11:42.477Z,24.05
2022-12-31T22:14:11.960Z,13.65
2022-12-31T22:16:41.378Z,18.80
2022-12-31T22:19:11.105Z,15.38
2022-12-31T22:21:40.433Z,17.23
2022-12-31T22:24:11.863Z,11.73
2022-12-31T22:26:46.555Z,14.05
2022-12-31T22:29:16.492Z,14.65
2022-12-31T22:31:45.859Z,12.13
2022-12-31T22:34:15.276Z,11.30
2022-12-31T22:36:44.554Z,11.70
2022-12-31T22:39:44.141Z,9.13
2022-12-31T22:42:07.404Z,9.52
2022-12-31T22:44:36.728Z,8.95
2022-12-31T22:47:06.037Z,7.78
2022-12-31T22:49:35.276Z,9.32
2022-12-31T22:52:08.808Z,8.88
2022-12-31T22:54:39.874Z,10.68
2022-12-31T22:57:13.314Z,7.63
2022-12-31T22:59:45.602Z,10.00
2022-12-31T23:02:14.982Z,9.25
2022-12-31T23:04:45.690Z,8.30
2022-12-31T23:07:15.157Z,17.60
2022-12-31T23:12:31.847Z,10.60
2022-12-31T23:15:18.663Z,13.95
2022-12-31T23:18:05.643Z,11.93
2022-12-31T23:20:52.513Z,8.70
2022-12-31T23:23:21.785Z,8.80
2022-12-31T23:25:53.653Z,8.40
2022-12-31T23:28:25.379Z,7.35
2022-12-31T23:30:54.959Z,8.63
2022-12-31T23:33:26.460Z,6.38
2022-12-31T23:36:04.703Z,6.75
2022-12-31T23:38:34.073Z,8.02
2022-12-31T23:41:13.161Z,11.05
2022-12-31T23:43:42.448Z,5.80
2022-12-31T23:46:12.314Z,8.93
2022-12-31T23:48:41.699Z,7.80
2022-12-31T23:51:11.105Z,8.57
2022-12-31T23:53:40.418Z,7.15
2022-12-31T23:56:21.114Z,7.53
2022-12-31T23:58:56.465Z,6.90
